TGPY/GND METAR and TAF weather

Enter ICAO airport designator
Station Type Date Time Source
TGPY METAR 2018/12/11 20:00 UTC NOAA

TGPY 112000Z 09013KT 9999 FEW018 28/24 Q1014 NOSIG ADJ SHRA-NE S


Station Type Date Time Source
TGPY Decoded METAR 2018/12/11 20:00 UTC NOAA

Point Salines Airport, Grenada (TGPY) 12-00N 061-47W 7M
Dec 11, 2018 - 03:00 PM EST / 2018.12.11 2000 UTC
Wind: from the E (090 degrees) at 15 MPH (13 KT):0
Visibility: greater than 7 mile(s):0
Sky conditions: mostly clear
Temperature: 82 F (28 C)
Dew Point: 75 F (24 C)
Relative Humidity: 78%
Pressure (altimeter): 29.94 in. Hg (1014 hPa)
ob: TGPY 112000Z 09013KT 9999 FEW018 28/24 Q1014 NOSIG ADJ SHRA-NE S
cycle: 20

Station Type Date Time Source
TGPY TAF 2018/12/11 18:59 UTC NOAA

TAF TGPY 111600Z 1118/1218 08015KT 9999 SCT018


Example: see airport list